createdAt,value
2017-04-24T00:00:06.491Z,0
2017-04-24T00:01:18.712Z,0
2017-04-24T00:02:31.184Z,0
2017-04-24T00:03:43.954Z,0
2017-04-24T00:04:56.474Z,0
2017-04-24T00:06:09.012Z,0
2017-04-24T00:07:21.233Z,0
2017-04-24T00:08:33.765Z,0
2017-04-24T00:09:45.986Z,0
2017-04-24T00:10:58.508Z,0
2017-04-24T00:12:10.430Z,0
2017-04-24T00:13:22.651Z,0
2017-04-24T00:14:35.159Z,0
2017-04-24T00:15:47.665Z,0
2017-04-24T00:16:59.888Z,0
2017-04-24T00:18:12.403Z,0
2017-04-24T00:19:24.334Z,0
2017-04-24T00:20:36.849Z,0
2017-04-24T00:21:49.394Z,0
2017-04-24T00:23:01.913Z,0
2017-04-24T00:24:13.829Z,0
2017-04-24T00:25:26.347Z,0
2017-04-24T00:26:38.554Z,0
2017-04-24T00:27:51.090Z,0
2017-04-24T00:29:03.620Z,0
2017-04-24T00:30:15.306Z,0
2017-04-24T00:31:27.516Z,0
2017-04-24T00:32:39.776Z,0
2017-04-24T00:33:51.997Z,0
2017-04-24T00:35:04.550Z,0
2017-04-24T00:36:16.489Z,0
2017-04-24T00:37:29.007Z,0
2017-04-24T00:38:41.540Z,0
2017-04-24T00:39:53.828Z,0
2017-04-24T00:41:06.353Z,0
2017-04-24T00:42:18.872Z,0
2017-04-24T00:43:31.069Z,0
2017-04-24T00:44:43.592Z,0
2017-04-24T00:45:56.113Z,0
2017-04-24T00:47:08.310Z,0
2017-04-24T00:48:20.819Z,0
2017-04-24T00:49:33.352Z,0
2017-04-24T00:50:45.865Z,0
2017-04-24T00:51:58.594Z,0
2017-04-24T00:53:11.129Z,0
2017-04-24T00:54:23.650Z,0
2017-04-24T00:55:35.853Z,0
2017-04-24T00:56:48.366Z,0
2017-04-24T00:58:00.900Z,0
2017-04-24T00:59:13.436Z,0
2017-04-24T01:00:25.937Z,0
2017-04-24T01:01:38.440Z,0
2017-04-24T01:02:50.353Z,0
2017-04-24T01:04:02.902Z,0
2017-04-24T01:05:15.445Z,0
2017-04-24T01:06:27.717Z,0
2017-04-24T01:07:40.229Z,0
2017-04-24T01:08:52.739Z,0
2017-04-24T01:10:05.256Z,0
2017-04-24T01:11:17.476Z,0
2017-04-24T01:12:30.001Z,0
2017-04-24T01:13:42.234Z,0
2017-04-24T01:14:54.483Z,0
2017-04-24T01:16:07.029Z,0
2017-04-24T01:17:19.259Z,0
2017-04-24T01:18:31.779Z,0
2017-04-24T01:19:44.296Z,0
2017-04-24T01:20:56.820Z,0
2017-04-24T01:22:09.338Z,0
2017-04-24T01:23:21.536Z,0
2017-04-24T01:24:34.011Z,0
2017-04-24T01:25:46.530Z,0
2017-04-24T01:26:59.049Z,0
2017-04-24T01:28:11.293Z,0
2017-04-24T01:29:23.513Z,0
2017-04-24T01:30:36.051Z,0
2017-04-24T01:31:48.598Z,0
2017-04-24T01:33:01.105Z,0
2017-04-24T01:34:13.599Z,0
2017-04-24T01:35:26.421Z,0
2017-04-24T01:36:38.965Z,0
2017-04-24T01:37:51.488Z,0
2017-04-24T01:39:03.999Z,0
2017-04-24T01:40:16.521Z,0
2017-04-24T01:41:29.027Z,0
2017-04-24T01:42:40.960Z,0
2017-04-24T01:43:53.497Z,0
2017-04-24T01:45:06.028Z,0
2017-04-24T01:46:18.252Z,0
2017-04-24T01:47:30.780Z,0
2017-04-24T01:48:42.973Z,0
2017-04-24T01:49:55.539Z,0
2017-04-24T01:51:08.059Z,0
2017-04-24T01:52:20.286Z,0
2017-04-24T01:53:32.499Z,0
2017-04-24T01:54:45.031Z,0
2017-04-24T01:55:57.248Z,0
2017-04-24T01:57:09.776Z,0
2017-04-24T01:58:21.990Z,0
2017-04-24T01:59:34.211Z,0
2017-04-24T02:00:46.728Z,0
2017-04-24T02:01:59.262Z,0
2017-04-24T02:03:11.817Z,0
2017-04-24T02:04:24.340Z,0
2017-04-24T02:05:36.908Z,0
2017-04-24T02:06:49.439Z,0
2017-04-24T02:08:01.960Z,0
2017-04-24T02:09:14.481Z,0
2017-04-24T02:10:26.996Z,0
2017-04-24T02:11:38.920Z,0
2017-04-24T02:12:51.445Z,0
2017-04-24T02:14:03.940Z,0
2017-04-24T02:15:16.458Z,0
2017-04-24T02:16:28.982Z,0
2017-04-24T02:17:41.525Z,0
2017-04-24T02:18:54.063Z,0
2017-04-24T02:20:06.566Z,0
2017-04-24T02:21:18.787Z,0
2017-04-24T02:22:31.313Z,0
2017-04-24T02:23:43.554Z,0
2017-04-24T02:24:56.075Z,0
2017-04-24T02:26:08.593Z,0
2017-04-24T02:27:20.821Z,0
2017-04-24T02:28:33.043Z,0
2017-04-24T02:29:45.563Z,0
2017-04-24T02:30:58.080Z,0
2017-04-24T02:32:10.022Z,0
2017-04-24T02:33:22.238Z,0
2017-04-24T02:34:34.467Z,0
2017-04-24T02:35:46.983Z,0
2017-04-24T02:36:59.514Z,0
2017-04-24T02:38:12.047Z,0
2017-04-24T02:39:24.251Z,0
2017-04-24T02:40:36.777Z,0
2017-04-24T02:41:49.024Z,0
2017-04-24T02:43:01.539Z,0
2017-04-24T02:44:14.052Z,0
2017-04-24T02:45:26.577Z,0
2017-04-24T02:46:39.122Z,0
2017-04-24T02:47:51.626Z,0
2017-04-24T02:49:04.139Z,0
2017-04-24T02:50:16.639Z,0
2017-04-24T02:51:29.161Z,0
2017-04-24T02:52:41.661Z,0
2017-04-24T02:53:54.199Z,0
2017-04-24T02:55:06.744Z,0
2017-04-24T02:56:18.944Z,0
2017-04-24T02:57:31.444Z,0
2017-04-24T02:58:43.953Z,0
2017-04-24T02:59:56.473Z,0
2017-04-24T03:01:09.006Z,0
2017-04-24T03:02:21.498Z,0
2017-04-24T03:03:34.022Z,0
2017-04-24T03:04:46.244Z,0
2017-04-24T03:05:58.765Z,0
2017-04-24T03:07:11.299Z,0
2017-04-24T03:08:23.507Z,0
2017-04-24T03:09:36.030Z,0
2017-04-24T03:10:47.949Z,0
2017-04-24T03:12:00.544Z,0
2017-04-24T03:13:12.787Z,0
2017-04-24T03:14:25.328Z,0
2017-04-24T03:15:37.879Z,0
2017-04-24T03:16:50.418Z,0
2017-04-24T03:18:02.949Z,0
2017-04-24T03:19:15.183Z,0
2017-04-24T03:20:27.754Z,0
2017-04-24T03:21:39.958Z,0
2017-04-24T03:22:52.482Z,0
2017-04-24T03:24:05.026Z,0
2017-04-24T03:25:17.239Z,0
2017-04-24T03:26:29.742Z,0
2017-04-24T03:27:42.309Z,0
2017-04-24T03:28:54.840Z,0
2017-04-24T03:30:07.380Z,0
2017-04-24T03:31:19.604Z,0
2017-04-24T03:32:32.167Z,0
2017-04-24T03:33:44.696Z,0
2017-04-24T03:34:57.239Z,0
2017-04-24T03:36:09.761Z,0
2017-04-24T03:37:22.309Z,0
2017-04-24T03:38:34.526Z,0
2017-04-24T03:39:47.026Z,5
2017-04-24T03:40:59.535Z,5
2017-04-24T03:42:12.076Z,5
2017-04-24T03:43:24.630Z,5
2017-04-24T03:44:37.159Z,5
2017-04-24T03:45:49.701Z,10
2017-04-24T03:47:02.201Z,10
2017-04-24T03:48:14.710Z,10
2017-04-24T03:49:27.242Z,10
2017-04-24T03:50:39.464Z,15
2017-04-24T03:51:52.259Z,15
2017-04-24T03:53:04.806Z,15
2017-04-24T03:54:17.060Z,20
2017-04-24T03:55:29.586Z,20
2017-04-24T03:56:42.093Z,20
2017-04-24T03:57:54.610Z,25
2017-04-24T03:59:06.851Z,30
2017-04-24T04:00:19.379Z,30
2017-04-24T04:01:31.901Z,35
2017-04-24T04:02:44.421Z,35
2017-04-24T04:03:56.940Z,40
2017-04-24T04:05:09.481Z,40
2017-04-24T04:06:21.435Z,45
2017-04-24T04:07:33.956Z,45
2017-04-24T04:08:45.877Z,45
2017-04-24T04:09:58.419Z,45
2017-04-24T04:11:10.641Z,50
2017-04-24T04:12:23.139Z,50
2017-04-24T04:13:35.650Z,50
2017-04-24T04:14:48.153Z,55
2017-04-24T04:16:00.649Z,55
2017-04-24T04:17:13.161Z,60
2017-04-24T04:18:25.691Z,60
2017-04-24T04:19:38.191Z,65
2017-04-24T04:20:50.710Z,65
2017-04-24T04:22:03.220Z,70
2017-04-24T04:23:15.417Z,70
2017-04-24T04:24:28.225Z,70
2017-04-24T04:25:40.766Z,75
2017-04-24T04:26:53.294Z,75
2017-04-24T04:28:05.812Z,80
2017-04-24T04:29:18.046Z,85
2017-04-24T04:30:30.568Z,85
2017-04-24T04:31:43.074Z,90
2017-04-24T04:32:55.588Z,90
2017-04-24T04:34:08.087Z,95
2017-04-24T04:35:20.310Z,100
2017-04-24T04:36:32.832Z,100
2017-04-24T04:37:45.050Z,105
2017-04-24T04:38:57.264Z,110
2017-04-24T04:40:09.489Z,115
2017-04-24T04:41:21.716Z,125
2017-04-24T04:42:34.239Z,130
2017-04-24T04:43:46.801Z,135
2017-04-24T04:44:59.356Z,135
2017-04-24T04:46:11.898Z,135
2017-04-24T04:47:24.123Z,135
2017-04-24T04:48:36.639Z,140
2017-04-24T04:49:49.156Z,140
2017-04-24T04:51:01.701Z,140
2017-04-24T04:52:14.228Z,145
2017-04-24T04:53:26.752Z,150
2017-04-24T04:54:38.961Z,150
2017-04-24T04:55:51.181Z,160
2017-04-24T04:57:03.711Z,175
2017-04-24T04:58:15.934Z,195
2017-04-24T04:59:28.483Z,215
2017-04-24T05:00:41.000Z,230
2017-04-24T05:01:53.226Z,235
2017-04-24T05:03:05.773Z,235
2017-04-24T05:04:17.985Z,230
2017-04-24T05:05:30.507Z,230
2017-04-24T05:06:43.031Z,225
2017-04-24T05:07:55.502Z,215
2017-04-24T05:09:07.749Z,225
2017-04-24T05:10:20.265Z,230
2017-04-24T05:11:32.787Z,230
2017-04-24T05:12:45.311Z,225
2017-04-24T05:13:57.854Z,220
2017-04-24T05:15:10.328Z,220
2017-04-24T05:16:22.549Z,220
2017-04-24T05:17:35.071Z,210
2017-04-24T05:18:47.629Z,205
2017-04-24T05:20:00.149Z,195
2017-04-24T05:21:12.657Z,190
2017-04-24T05:22:25.174Z,185
2017-04-24T05:23:37.698Z,180
2017-04-24T05:24:50.212Z,185
2017-04-24T05:26:02.455Z,190
2017-04-24T05:27:14.679Z,205
2017-04-24T05:28:27.208Z,215
2017-04-24T05:29:39.403Z,225
2017-04-24T05:30:51.898Z,230
2017-04-24T05:32:04.437Z,235
2017-04-24T05:33:16.946Z,240
2017-04-24T05:34:29.201Z,240
2017-04-24T05:35:41.705Z,260
2017-04-24T05:36:54.217Z,270
2017-04-24T05:38:06.724Z,280
2017-04-24T05:39:19.271Z,295
2017-04-24T05:40:32.058Z,300
2017-04-24T05:41:44.590Z,305
2017-04-24T05:42:57.159Z,315
2017-04-24T05:44:09.656Z,325
2017-04-24T05:45:22.449Z,335
2017-04-24T05:46:34.970Z,355
2017-04-24T05:47:47.181Z,365
2017-04-24T05:48:59.709Z,390
2017-04-24T05:50:12.247Z,425
2017-04-24T05:51:24.777Z,445
2017-04-24T05:52:37.322Z,455
2017-04-24T05:53:49.867Z,465
2017-04-24T05:55:02.366Z,495
2017-04-24T05:56:14.560Z,505
2017-04-24T05:57:27.047Z,555
2017-04-24T05:58:39.593Z,515
2017-04-24T05:59:52.125Z,480
2017-04-24T06:01:04.636Z,480
2017-04-24T06:02:17.089Z,480
2017-04-24T06:03:29.330Z,480
2017-04-24T06:04:41.860Z,480
2017-04-24T06:05:54.098Z,465
2017-04-24T06:07:06.603Z,465
2017-04-24T06:08:18.860Z,430
2017-04-24T06:09:31.369Z,405
2017-04-24T06:10:43.612Z,390
2017-04-24T06:11:55.849Z,385
2017-04-24T06:13:08.383Z,355
2017-04-24T06:14:20.974Z,365
2017-04-24T06:15:33.512Z,410
2017-04-24T06:16:46.019Z,570
2017-04-24T06:17:58.561Z,545
2017-04-24T06:19:11.109Z,460
2017-04-24T06:20:23.320Z,480
2017-04-24T06:21:35.549Z,815
2017-04-24T06:22:48.084Z,845
2017-04-24T06:24:00.941Z,855
2017-04-24T06:25:13.466Z,800
2017-04-24T06:26:26.007Z,815
2017-04-24T06:27:38.557Z,800
2017-04-24T06:28:51.104Z,805
2017-04-24T06:30:03.623Z,745
2017-04-24T06:31:16.145Z,825
2017-04-24T06:32:28.672Z,900
2017-04-24T06:33:41.207Z,890
2017-04-24T06:34:53.449Z,850
2017-04-24T06:36:05.974Z,810
2017-04-24T06:37:18.513Z,755
2017-04-24T06:38:30.749Z,725
2017-04-24T06:39:43.305Z,685
2017-04-24T06:40:55.851Z,685
2017-04-24T06:42:08.072Z,695
2017-04-24T06:43:20.602Z,685
2017-04-24T06:44:33.166Z,735
2017-04-24T06:45:45.391Z,860
2017-04-24T06:46:57.908Z,1110
2017-04-24T06:48:10.457Z,1385
2017-04-24T06:49:22.725Z,1580
2017-04-24T06:50:35.258Z,1745
2017-04-24T06:51:47.777Z,1745
2017-04-24T06:53:00.338Z,1735
2017-04-24T06:54:12.581Z,1490
2017-04-24T06:55:25.115Z,1260
2017-04-24T06:56:37.674Z,1310
2017-04-24T06:57:50.229Z,1380
2017-04-24T06:59:02.776Z,1430
2017-04-24T07:00:14.998Z,1550
2017-04-24T07:01:27.534Z,1585
2017-04-24T07:02:39.784Z,1535
2017-04-24T07:03:52.327Z,1545
2017-04-24T07:05:04.880Z,1490
2017-04-24T07:06:16.793Z,1130
2017-04-24T07:07:29.319Z,1260
2017-04-24T07:08:41.266Z,1220
2017-04-24T07:09:53.519Z,1055
2017-04-24T07:11:06.077Z,845
2017-04-24T07:12:18.299Z,785
2017-04-24T07:13:30.547Z,1345
2017-04-24T07:14:42.789Z,1455
2017-04-24T07:15:55.011Z,1495
2017-04-24T07:17:07.561Z,1530
2017-04-24T07:18:19.786Z,1770
2017-04-24T07:19:32.332Z,2030
2017-04-24T07:20:44.877Z,1990
2017-04-24T07:21:57.149Z,2110
2017-04-24T07:23:09.687Z,1970
2017-04-24T07:24:22.240Z,1045
2017-04-24T07:25:34.761Z,2005
2017-04-24T07:26:46.995Z,2060
2017-04-24T07:27:58.924Z,2160
2017-04-24T07:29:11.467Z,2240
2017-04-24T07:30:23.718Z,2270
2017-04-24T07:31:36.258Z,2400
2017-04-24T07:32:48.782Z,2370
2017-04-24T07:34:00.705Z,2445
2017-04-24T07:35:13.227Z,2435
2017-04-24T07:36:25.802Z,2425
2017-04-24T07:37:38.344Z,2500
2017-04-24T07:38:50.583Z,2565
2017-04-24T07:40:03.125Z,2505
2017-04-24T07:41:15.653Z,2575
2017-04-24T07:42:27.879Z,2650
2017-04-24T07:43:40.441Z,2445
2017-04-24T07:44:52.996Z,2485
2017-04-24T07:46:05.236Z,2360
2017-04-24T07:47:16.876Z,2220
2017-04-24T07:48:29.450Z,2005
2017-04-24T07:49:41.378Z,1865
2017-04-24T07:50:53.642Z,1955
2017-04-24T07:52:06.187Z,1745
2017-04-24T07:53:18.746Z,1815
2017-04-24T07:54:31.308Z,1865
2017-04-24T07:55:43.861Z,2180
2017-04-24T07:56:56.094Z,2695
2017-04-24T07:58:08.326Z,2885
2017-04-24T07:59:20.897Z,2775
2017-04-24T08:00:33.140Z,2540
2017-04-24T08:01:45.360Z,1410
2017-04-24T08:02:57.909Z,930
2017-04-24T08:04:10.119Z,830
2017-04-24T08:05:22.098Z,765
2017-04-24T08:06:34.671Z,820
2017-04-24T08:07:47.189Z,840
2017-04-24T08:08:59.453Z,765
2017-04-24T08:10:11.656Z,745
2017-04-24T08:11:23.577Z,745
2017-04-24T08:12:36.127Z,770
2017-04-24T08:13:48.686Z,870
2017-04-24T08:15:01.268Z,1045
2017-04-24T08:16:13.790Z,1210
2017-04-24T08:17:26.334Z,1235
2017-04-24T08:18:38.555Z,1160
2017-04-24T08:19:51.094Z,1050
2017-04-24T08:21:03.623Z,925
2017-04-24T08:22:15.844Z,835
2017-04-24T08:23:28.363Z,805
2017-04-24T08:24:40.878Z,725
2017-04-24T08:25:53.405Z,635
2017-04-24T08:27:05.941Z,555
2017-04-24T08:28:18.187Z,520
2017-04-24T08:29:30.745Z,515
2017-04-24T08:30:43.007Z,515
2017-04-24T08:31:55.557Z,550
2017-04-24T08:33:08.081Z,610
2017-04-24T08:34:20.629Z,630
2017-04-24T08:35:33.169Z,610
2017-04-24T08:36:45.415Z,515
2017-04-24T08:37:57.638Z,475
2017-04-24T08:39:10.428Z,455
2017-04-24T08:40:22.979Z,425
2017-04-24T08:41:35.475Z,410
2017-04-24T08:42:48.020Z,430
2017-04-24T08:44:00.568Z,450
2017-04-24T08:45:12.517Z,535
2017-04-24T08:46:25.058Z,595
2017-04-24T08:47:37.607Z,620
2017-04-24T08:48:50.153Z,705
2017-04-24T08:50:02.399Z,835
2017-04-24T08:51:14.662Z,775
2017-04-24T08:52:27.192Z,890
2017-04-24T08:53:39.401Z,1060
2017-04-24T08:54:51.982Z,1350
2017-04-24T08:56:04.503Z,1335
2017-04-24T08:57:17.072Z,1300
2017-04-24T08:58:29.595Z,1405
2017-04-24T08:59:42.138Z,1330
2017-04-24T09:00:54.684Z,1125
2017-04-24T09:02:06.905Z,1015
2017-04-24T09:03:19.425Z,1020
2017-04-24T09:04:31.651Z,1080
2017-04-24T09:05:44.219Z,1165
2017-04-24T09:06:56.738Z,1205
2017-04-24T09:08:08.984Z,1225
2017-04-24T09:09:20.931Z,1100
2017-04-24T09:10:33.172Z,900
2017-04-24T09:11:45.414Z,975
2017-04-24T09:12:57.942Z,1275
2017-04-24T09:14:09.885Z,1300
2017-04-24T09:15:22.439Z,1265
2017-04-24T09:16:35.023Z,1300
2017-04-24T09:17:47.568Z,1335
2017-04-24T09:18:59.802Z,1375
2017-04-24T09:20:12.342Z,1500
2017-04-24T09:21:24.573Z,1475
2017-04-24T09:22:37.107Z,1390
2017-04-24T09:23:49.606Z,1295
2017-04-24T09:25:01.828Z,1385
2017-04-24T09:26:14.064Z,1460
2017-04-24T09:27:26.293Z,1525
2017-04-24T09:28:38.793Z,1575
2017-04-24T09:29:51.039Z,1610
2017-04-24T09:31:03.556Z,1615
2017-04-24T09:32:16.081Z,1590
2017-04-24T09:33:28.642Z,1615
2017-04-24T09:34:41.174Z,1745
2017-04-24T09:35:53.715Z,1765
2017-04-24T09:37:06.253Z,1725
2017-04-24T09:38:18.507Z,1570
2017-04-24T09:39:31.021Z,1425
2017-04-24T09:40:43.553Z,1180
2017-04-24T09:41:55.772Z,1040
2017-04-24T09:43:08.275Z,930
2017-04-24T09:44:20.815Z,910
2017-04-24T09:45:33.381Z,1035
2017-04-24T09:46:45.578Z,1335
2017-04-24T09:47:58.145Z,1540
2017-04-24T09:49:10.714Z,1525
2017-04-24T09:50:23.284Z,1560
2017-04-24T09:51:35.816Z,1290
2017-04-24T09:52:48.061Z,1135
2017-04-24T09:54:00.610Z,1170
2017-04-24T09:55:13.168Z,1310
2017-04-24T09:56:25.717Z,1490
2017-04-24T09:57:38.241Z,1540
2017-04-24T09:58:50.792Z,1500
2017-04-24T10:00:03.356Z,1545
2017-04-24T10:01:15.882Z,1610
2017-04-24T10:02:28.401Z,1665
2017-04-24T10:03:40.642Z,1615
2017-04-24T10:04:53.197Z,1655
2017-04-24T10:06:05.755Z,1605
2017-04-24T10:07:18.301Z,1580
2017-04-24T10:08:30.851Z,1605
2017-04-24T10:09:43.051Z,1590
2017-04-24T10:10:55.572Z,1565
2017-04-24T10:12:08.097Z,1555
2017-04-24T10:13:20.367Z,1780
2017-04-24T10:14:32.909Z,1695
2017-04-24T10:15:45.455Z,1440
2017-04-24T10:16:58.005Z,1425
2017-04-24T10:18:10.548Z,1620
2017-04-24T10:19:22.471Z,1805
2017-04-24T10:20:34.713Z,2040
2017-04-24T10:21:47.255Z,1425
2017-04-24T10:22:59.785Z,1695
2017-04-24T10:24:11.750Z,2075
2017-04-24T10:25:23.997Z,1520
2017-04-24T10:26:36.496Z,2325
2017-04-24T10:27:49.032Z,2670
2017-04-24T10:29:01.589Z,3935
2017-04-24T10:30:13.856Z,2350
2017-04-24T10:31:26.382Z,2720
2017-04-24T10:32:38.928Z,2660
2017-04-24T10:33:51.173Z,2320
2017-04-24T10:35:03.731Z,1980
2017-04-24T10:36:15.690Z,1940
2017-04-24T10:37:28.252Z,3580
2017-04-24T10:38:40.758Z,1800
2017-04-24T10:39:53.276Z,1330
2017-04-24T10:41:05.815Z,1610
2017-04-24T10:42:18.347Z,1245
2017-04-24T10:43:30.891Z,1255
2017-04-24T10:44:43.449Z,1570
2017-04-24T10:45:55.982Z,1480
2017-04-24T10:47:08.502Z,2425
2017-04-24T10:48:21.063Z,3275
2017-04-24T10:49:33.658Z,2600
2017-04-24T10:50:46.193Z,3310
2017-04-24T10:51:58.736Z,3155
2017-04-24T10:53:10.959Z,2610
2017-04-24T10:54:23.503Z,2730
2017-04-24T10:55:36.049Z,3125
2017-04-24T10:56:48.616Z,2935
2017-04-24T10:58:01.146Z,2575
2017-04-24T10:59:13.704Z,2830
2017-04-24T11:00:26.296Z,3215
2017-04-24T11:01:38.550Z,1450
2017-04-24T11:02:51.098Z,2550
2017-04-24T11:04:03.647Z,1240
2017-04-24T11:05:15.919Z,2945
2017-04-24T11:06:28.435Z,1040
2017-04-24T11:07:40.983Z,1005
2017-04-24T11:08:53.555Z,990
2017-04-24T11:10:05.521Z,2685
2017-04-24T11:11:17.760Z,1295
2017-04-24T11:12:30.290Z,1210
2017-04-24T11:13:42.540Z,1050
2017-04-24T11:14:55.110Z,1270
2017-04-24T11:16:07.668Z,1510
2017-04-24T11:17:20.221Z,1515
2017-04-24T11:18:32.746Z,1040
2017-04-24T11:19:45.292Z,955
2017-04-24T11:20:57.812Z,975
2017-04-24T11:22:10.060Z,940
2017-04-24T11:23:22.622Z,880
2017-04-24T11:24:35.175Z,945
2017-04-24T11:25:47.697Z,965
2017-04-24T11:27:00.232Z,785
2017-04-24T11:28:12.460Z,1090
2017-04-24T11:29:24.706Z,1035
2017-04-24T11:30:36.923Z,1740
2017-04-24T11:31:49.476Z,4435
2017-04-24T11:33:02.000Z,1035
2017-04-24T11:34:14.243Z,4745
2017-04-24T11:35:26.786Z,1290
2017-04-24T11:36:39.306Z,1315
2017-04-24T11:37:51.582Z,2040
2017-04-24T11:39:03.848Z,810
2017-04-24T11:40:16.397Z,705
2017-04-24T11:41:28.936Z,790
2017-04-24T11:42:41.183Z,1270
2017-04-24T11:43:53.709Z,2120
2017-04-24T11:45:06.273Z,920
2017-04-24T11:46:18.829Z,3480
2017-04-24T11:47:31.391Z,2195
2017-04-24T11:48:43.933Z,1045
2017-04-24T11:49:56.183Z,1355
2017-04-24T11:51:08.758Z,3985
2017-04-24T11:52:21.279Z,1130
2017-04-24T11:53:33.505Z,1195
2017-04-24T11:54:45.763Z,1290
2017-04-24T11:55:58.309Z,3940
2017-04-24T11:57:10.279Z,4590
2017-04-24T11:58:22.512Z,4105
2017-04-24T11:59:35.079Z,935
2017-04-24T12:00:47.604Z,875
2017-04-24T12:01:59.851Z,1280
2017-04-24T12:03:12.434Z,1195
2017-04-24T12:04:24.990Z,1270
2017-04-24T12:05:37.233Z,1265
2017-04-24T12:06:49.454Z,1080
2017-04-24T12:08:01.402Z,1975
2017-04-24T12:09:13.950Z,1760
2017-04-24T12:10:26.467Z,4675
2017-04-24T12:11:38.989Z,4610
2017-04-24T12:12:51.236Z,4350
2017-04-24T12:14:03.187Z,2245
2017-04-24T12:15:15.130Z,1615
2017-04-24T12:16:27.702Z,955
2017-04-24T12:17:40.286Z,1210
2017-04-24T12:18:52.856Z,1880
2017-04-24T12:20:05.379Z,3920
2017-04-24T12:21:17.306Z,4150
2017-04-24T12:22:29.843Z,4135
2017-04-24T12:23:42.418Z,2775
2017-04-24T12:24:54.361Z,1285
2017-04-24T12:26:06.642Z,3800
2017-04-24T12:27:19.206Z,1490
2017-04-24T12:28:31.733Z,1430
2017-04-24T12:29:44.284Z,1210
2017-04-24T12:30:56.551Z,1140
2017-04-24T12:32:08.493Z,1165
2017-04-24T12:33:20.989Z,1790
2017-04-24T12:34:33.255Z,4625
2017-04-24T12:35:45.510Z,4220
2017-04-24T12:36:58.056Z,1595
2017-04-24T12:38:10.626Z,1565
2017-04-24T12:39:22.566Z,2380
2017-04-24T12:40:35.143Z,1565
2017-04-24T12:41:47.686Z,1450
2017-04-24T12:43:00.236Z,2840
2017-04-24T12:44:12.182Z,4340
2017-04-24T12:45:24.741Z,3940
2017-04-24T12:46:37.288Z,3990
2017-04-24T12:47:49.537Z,2075
2017-04-24T12:49:02.082Z,3925
2017-04-24T12:50:14.041Z,4200
2017-04-24T12:51:26.578Z,3990
2017-04-24T12:52:39.144Z,2350
2017-04-24T12:53:51.672Z,3795
2017-04-24T12:55:04.213Z,3935
2017-04-24T12:56:16.458Z,1240
2017-04-24T12:57:28.704Z,1170
2017-04-24T12:58:41.261Z,2545
2017-04-24T12:59:53.824Z,4100
2017-04-24T13:01:06.077Z,3835
2017-04-24T13:02:18.325Z,2140
2017-04-24T13:03:30.862Z,1185
2017-04-24T13:04:43.425Z,2255
2017-04-24T13:05:55.979Z,2935
2017-04-24T13:07:08.504Z,3875
2017-04-24T13:08:21.046Z,3300
2017-04-24T13:09:32.669Z,2000
2017-04-24T13:10:44.594Z,2010
2017-04-24T13:11:57.140Z,1800
2017-04-24T13:13:09.672Z,1590
2017-04-24T13:14:21.927Z,1210
2017-04-24T13:15:34.439Z,1055
2017-04-24T13:16:46.968Z,1015
2017-04-24T13:17:59.545Z,960
2017-04-24T13:19:11.162Z,965
2017-04-24T13:20:23.126Z,895
2017-04-24T13:21:35.683Z,940
2017-04-24T13:22:48.198Z,1095
2017-04-24T13:24:00.722Z,1015
2017-04-24T13:25:13.289Z,1090
2017-04-24T13:26:25.793Z,1020
2017-04-24T13:27:38.336Z,975
2017-04-24T13:28:50.851Z,1015
2017-04-24T13:30:02.199Z,1680
2017-04-24T13:31:14.147Z,1420
2017-04-24T13:32:26.664Z,1220
2017-04-24T13:33:38.606Z,1545
2017-04-24T13:34:51.132Z,1550
2017-04-24T13:36:03.381Z,2190
2017-04-24T13:37:15.627Z,970
2017-04-24T13:38:28.469Z,1230
2017-04-24T13:39:40.098Z,960
2017-04-24T13:40:51.467Z,885
2017-04-24T13:42:04.006Z,1020
2017-04-24T13:43:15.657Z,1045
2017-04-24T13:44:27.903Z,1100
2017-04-24T13:45:40.174Z,1175
2017-04-24T13:46:52.393Z,1030
2017-04-24T13:48:04.639Z,1130
2017-04-24T13:49:16.290Z,930
2017-04-24T13:50:27.331Z,905
2017-04-24T13:51:39.303Z,1080
2017-04-24T13:52:51.877Z,1260
2017-04-24T13:54:04.394Z,1065
2017-04-24T13:55:16.340Z,990
2017-04-24T13:56:28.878Z,1095
2017-04-24T13:57:41.434Z,1065
2017-04-24T13:58:53.667Z,950
2017-04-24T14:00:05.246Z,965
2017-04-24T14:01:15.992Z,950
2017-04-24T14:02:27.966Z,980
2017-04-24T14:03:40.483Z,925
2017-04-24T14:04:52.710Z,850
2017-04-24T14:06:05.202Z,815
2017-04-24T14:07:17.102Z,825
2017-04-24T14:08:29.663Z,860
2017-04-24T14:09:40.668Z,770
2017-04-24T14:10:52.001Z,700
2017-04-24T14:12:02.730Z,710
2017-04-24T14:13:14.993Z,860
2017-04-24T14:14:26.950Z,865
2017-04-24T14:15:39.468Z,795
2017-04-24T14:16:51.714Z,805
2017-04-24T14:18:03.977Z,840
2017-04-24T14:19:15.613Z,865
2017-04-24T14:20:26.933Z,860
2017-04-24T14:21:37.955Z,855
2017-04-24T14:22:49.668Z,840
2017-04-24T14:24:01.056Z,775
2017-04-24T14:25:12.681Z,700
2017-04-24T14:26:25.199Z,700
2017-04-24T14:27:37.770Z,790
2017-04-24T14:28:50.330Z,945
2017-04-24T14:30:02.870Z,990
2017-04-24T14:31:14.819Z,1100
2017-04-24T14:32:27.381Z,1085
2017-04-24T14:33:39.907Z,905
2017-04-24T14:34:51.852Z,815
2017-04-24T14:36:04.375Z,720
2017-04-24T14:37:16.887Z,625
2017-04-24T14:38:29.420Z,580
2017-04-24T14:39:41.987Z,505
2017-04-24T14:40:54.211Z,450
2017-04-24T14:42:06.775Z,475
2017-04-24T14:43:19.252Z,515
2017-04-24T14:44:31.775Z,575
2017-04-24T14:45:44.293Z,645
2017-04-24T14:46:56.837Z,615
2017-04-24T14:48:09.075Z,640
2017-04-24T14:49:21.315Z,655
2017-04-24T14:50:33.895Z,665
2017-04-24T14:51:46.423Z,660
2017-04-24T14:52:58.959Z,685
2017-04-24T14:54:11.520Z,725
2017-04-24T14:55:23.480Z,730
2017-04-24T14:56:36.032Z,735
2017-04-24T14:57:48.576Z,680
2017-04-24T14:59:01.073Z,640
2017-04-24T15:00:13.310Z,605
2017-04-24T15:01:25.531Z,605
2017-04-24T15:02:37.776Z,630
2017-04-24T15:03:50.308Z,590
2017-04-24T15:05:02.849Z,570
2017-04-24T15:06:15.052Z,530
2017-04-24T15:07:27.596Z,565
2017-04-24T15:08:39.790Z,610
2017-04-24T15:09:52.330Z,645
2017-04-24T15:11:04.855Z,650
2017-04-24T15:12:17.405Z,620
2017-04-24T15:13:29.953Z,630
2017-04-24T15:14:42.468Z,620
2017-04-24T15:15:55.007Z,565
2017-04-24T15:17:07.580Z,570
2017-04-24T15:18:19.851Z,575
2017-04-24T15:19:32.382Z,550
2017-04-24T15:20:44.589Z,540
2017-04-24T15:21:57.120Z,515
2017-04-24T15:23:09.635Z,485
2017-04-24T15:24:22.164Z,480
2017-04-24T15:25:34.681Z,460
2017-04-24T15:26:46.620Z,425
2017-04-24T15:27:59.168Z,405
2017-04-24T15:29:11.402Z,410
2017-04-24T15:30:23.668Z,465
2017-04-24T15:31:36.178Z,450
2017-04-24T15:32:48.408Z,455
2017-04-24T15:34:00.948Z,425
2017-04-24T15:35:13.498Z,420
2017-04-24T15:36:26.042Z,430
2017-04-24T15:37:38.570Z,445
2017-04-24T15:38:50.820Z,425
2017-04-24T15:40:03.377Z,430
2017-04-24T15:41:15.623Z,440
2017-04-24T15:42:28.178Z,415
2017-04-24T15:43:40.699Z,395
2017-04-24T15:44:53.240Z,385
2017-04-24T15:46:05.182Z,375
2017-04-24T15:47:16.804Z,375
2017-04-24T15:48:29.345Z,400
2017-04-24T15:49:41.878Z,430
2017-04-24T15:50:54.073Z,465
2017-04-24T15:52:06.291Z,455
2017-04-24T15:53:18.516Z,415
2017-04-24T15:54:31.061Z,355
2017-04-24T15:55:43.601Z,345
2017-04-24T15:56:56.128Z,380
2017-04-24T15:58:08.663Z,420
2017-04-24T15:59:21.185Z,415
2017-04-24T16:00:33.739Z,385
2017-04-24T16:01:46.276Z,385
2017-04-24T16:02:58.829Z,370
2017-04-24T16:04:11.050Z,315
2017-04-24T16:05:23.592Z,255
2017-04-24T16:06:36.121Z,225
2017-04-24T16:07:48.684Z,190
2017-04-24T16:09:01.237Z,165
2017-04-24T16:10:13.458Z,155
2017-04-24T16:11:25.394Z,160
2017-04-24T16:12:37.942Z,170
2017-04-24T16:13:50.510Z,175
2017-04-24T16:15:03.043Z,170
2017-04-24T16:16:15.584Z,150
2017-04-24T16:17:28.107Z,140
2017-04-24T16:18:40.335Z,140
2017-04-24T16:19:52.877Z,135
2017-04-24T16:21:05.098Z,125
2017-04-24T16:22:17.010Z,125
2017-04-24T16:23:29.542Z,125
2017-04-24T16:24:42.134Z,130
2017-04-24T16:25:54.658Z,130
2017-04-24T16:27:07.176Z,125
2017-04-24T16:28:19.399Z,120
2017-04-24T16:29:31.943Z,115
2017-04-24T16:30:44.478Z,115
2017-04-24T16:31:57.010Z,110
2017-04-24T16:33:09.530Z,105
2017-04-24T16:34:21.774Z,95
2017-04-24T16:35:34.314Z,95
2017-04-24T16:36:46.832Z,90
2017-04-24T16:37:59.363Z,90
2017-04-24T16:39:11.903Z,100
2017-04-24T16:40:24.145Z,105
2017-04-24T16:41:36.652Z,110